KJAC

Jackson Hole Airport

Jackson, Wyoming, USA
METAR KJAC 161038Z AUTO 29004KT 2 1/2SM -SN BR BKN029 OVC035 M04/M07 A2987 RMK AO2 SNB11 P0000 FZRANO
Observed Flight Rules
Dec-16 @ 10:38 UTC (30 minutes ago) Instrument Flight Rules
Wind Visibility Clouds Conditions
290° at 4 knots 2 1/2 miles
  • Broken at 2,900' AGL
  • Overcast at 3,500' AGL
  • Light Snow
  • Mist
Temperatures Readings Precipitation
Current -4°C / 25°F
Dewpoint -7°C / 19°F
Humidity 80%
Altimeter 29.87" Hg
Pressure 1012 hPa
Elevation 1961
Current Rain 0.005
METAR KJAC 161038Z AUTO 29004KT 2 1/2SM -SN BR BKN029 OVC035 M04/M07 A2987 RMK AO2 SNB11 P0000 FZRANO
Observed Flight Rules
Dec-16 @ 10:38 UTC
(30 minutes ago)
IFR
Wind Visibility
290° at 4 knots 2 1/2 miles
Clouds
  • Broken at 2,900' AGL
  • Overcast at 3,500' AGL
Conditions
  • Light Snow
  • Mist
Temperature Dewpoint
-4°C / 25°F -7°C / 19°F
Humidity Altimeter Pressure
80% 29.87" Hg 1012 hPa
Current Rain
0.005